Main page
METAR-TAF:

METAR-TAF

Airports :

Humberside Airport

Humberside, England

latitude: 53-35N, longitude: 000-21W, elevation: 31 m

Current weather observation

The report was made 12 minutes ago, at 21:20 UTC
Wind 17 kt from the North/Northeast
Temperature 5°C
Humidity 75%
Pressure 1037 hPa
Visibility 10 km or more

METAR: EGNJ 282120Z AUTO 02017KT 9999 FEW035/// 05/01 Q1037

Time: 21:32 (21:32 UTC)

Forecast

The report was made 1 hour and 28 minutes ago, at 20:04 UTC
Forecast valid from 28 at 21 UTC to 29 at 06 UTC
Wind 15 kt from the North/Northeast with gusts up to 30 kt
Visibility 10 km or more
Scattered clouds at a height of 2000 ft
Probability 30% :
Temporary
from 28 at 21 UTC to 29 at 06 UTC
Visibility: 4000 m
Broken clouds at a height of 800 ft
rain showers, snow

TAF: EGNJ 282004Z 2821/2906 02015G30KT 9999 SCT020 PROB30 TEMPO 2821/2906 4000 SHRASN BKN008

Weather observations and forecasts of more than 4000 airports (METAR and TAF reports).

The available stations are represented by yellow and red dots on the map.

Hover mouse over dot to see the name of the station.

Then click to see weather observations and forecasts.

To change the map : click on the green buttons with a black cross to zoom in, on the green button with a dash to zoom out, or on the green arrows for adjacent maps.


METAR-TAF: